createdAt,value
2018-09-05T00:01:10.977Z,11.50
2018-09-05T00:03:39.421Z,11.87
2018-09-05T00:06:07.809Z,10.70
2018-09-05T00:08:36.181Z,12.37
2018-09-05T00:11:08.702Z,10.23
2018-09-05T00:13:37.092Z,10.43
2018-09-05T00:16:05.694Z,10.93
2018-09-05T00:18:34.105Z,10.33
2018-09-05T00:21:02.536Z,9.67
2018-09-05T00:23:30.981Z,10.33
2018-09-05T00:25:59.400Z,9.43
2018-09-05T00:28:27.785Z,11.50
2018-09-05T00:30:56.217Z,9.83
2018-09-05T00:33:24.650Z,9.57
2018-09-05T00:35:53.041Z,9.27
2018-09-05T00:38:21.420Z,9.33
2018-09-05T00:40:49.883Z,9.43
2018-09-05T00:43:18.296Z,9.53
2018-09-05T00:45:46.720Z,9.97
2018-09-05T00:48:15.129Z,8.80
2018-09-05T00:50:43.565Z,10.07
2018-09-05T00:53:11.936Z,9.03
2018-09-05T00:55:40.389Z,9.87
2018-09-05T00:58:08.756Z,9.50
2018-09-05T01:00:37.281Z,8.87
2018-09-05T01:03:05.709Z,8.33
2018-09-05T01:05:34.093Z,7.90
2018-09-05T01:08:02.527Z,8.80
2018-09-05T01:10:30.981Z,8.30
2018-09-05T01:12:59.393Z,7.70
2018-09-05T01:15:27.800Z,9.97
2018-09-05T01:17:56.205Z,9.03
2018-09-05T01:20:24.592Z,7.67
2018-09-05T01:22:53.051Z,8.27
2018-09-05T01:25:21.477Z,7.67
2018-09-05T01:27:49.905Z,7.90
2018-09-05T01:30:18.308Z,7.07
2018-09-05T01:32:46.736Z,7.43
2018-09-05T01:35:15.101Z,7.03
2018-09-05T01:37:43.581Z,10.03
2018-09-05T01:40:11.952Z,8.33
2018-09-05T01:42:40.396Z,6.87
2018-09-05T01:45:08.797Z,7.33
2018-09-05T01:47:37.228Z,6.60
2018-09-05T01:50:05.625Z,6.70
2018-09-05T01:52:34.118Z,6.80
2018-09-05T01:55:02.501Z,7.10
2018-09-05T01:57:30.905Z,8.17
2018-09-05T01:59:59.281Z,6.00
2018-09-05T02:02:27.737Z,6.03
2018-09-05T02:04:56.453Z,5.90
2018-09-05T02:07:24.864Z,6.70
2018-09-05T02:09:53.516Z,7.03
2018-09-05T02:12:21.889Z,6.87
2018-09-05T02:14:50.306Z,7.17
2018-09-05T02:17:18.708Z,7.27
2018-09-05T02:19:47.120Z,7.40
2018-09-05T02:22:15.481Z,7.77
2018-09-05T02:24:43.950Z,7.97
2018-09-05T02:27:12.317Z,7.20
2018-09-05T02:29:40.753Z,6.97
2018-09-05T02:32:09.145Z,8.47
2018-09-05T02:34:37.550Z,7.33
2018-09-05T02:37:05.925Z,7.80
2018-09-05T02:39:34.340Z,7.10
2018-09-05T02:42:02.744Z,6.37
2018-09-05T02:44:31.192Z,6.70
2018-09-05T02:46:59.578Z,6.70
2018-09-05T02:49:28.078Z,6.00
2018-09-05T02:51:56.453Z,7.07
2018-09-05T02:54:24.833Z,6.53
2018-09-05T02:56:53.257Z,6.00
2018-09-05T02:59:21.671Z,5.90
2018-09-05T03:01:50.113Z,6.03
2018-09-05T03:04:18.493Z,6.33
2018-09-05T03:06:46.904Z,6.03
2018-09-05T03:09:15.344Z,5.73
2018-09-05T03:11:43.829Z,6.00
2018-09-05T03:14:12.212Z,6.23
2018-09-05T03:16:40.629Z,5.20
2018-09-05T03:19:09.002Z,5.23
2018-09-05T03:21:37.417Z,6.20
2018-09-05T03:24:05.892Z,5.77
2018-09-05T03:26:34.296Z,6.80
2018-09-05T03:29:02.664Z,6.00
2018-09-05T03:31:31.086Z,5.87
2018-09-05T03:33:59.453Z,6.40
2018-09-05T03:36:27.873Z,6.43
2018-09-05T03:38:56.246Z,5.43
2018-09-05T03:41:24.657Z,5.57
2018-09-05T03:43:53.069Z,6.27
2018-09-05T03:46:21.502Z,5.73
2018-09-05T03:48:49.901Z,7.20
2018-09-05T03:51:18.330Z,4.90
2018-09-05T03:53:46.745Z,4.90
2018-09-05T03:56:15.122Z,5.50
2018-09-05T03:58:43.564Z,5.47
2018-09-05T04:01:11.970Z,5.47
2018-09-05T04:03:40.368Z,6.10
2018-09-05T04:06:08.749Z,5.87
2018-09-05T04:08:37.166Z,4.93
2018-09-05T04:11:05.610Z,5.73
2018-09-05T04:13:34.021Z,5.50
2018-09-05T04:16:02.390Z,6.37
2018-09-05T04:18:30.809Z,5.27
2018-09-05T04:20:59.168Z,5.67
2018-09-05T04:23:31.937Z,5.43
2018-09-05T04:26:00.732Z,5.47
2018-09-05T04:28:29.137Z,5.87
2018-09-05T04:30:57.563Z,6.23
2018-09-05T04:33:25.962Z,6.23
2018-09-05T04:35:54.340Z,5.83
2018-09-05T04:38:22.748Z,5.70
2018-09-05T04:40:51.121Z,6.33
2018-09-05T04:43:19.541Z,7.80
2018-09-05T04:45:47.912Z,6.53
2018-09-05T04:48:16.336Z,5.40
2018-09-05T04:50:44.773Z,5.93
2018-09-05T04:53:13.200Z,5.67
2018-09-05T04:55:41.608Z,6.00
2018-09-05T04:58:09.996Z,6.30
2018-09-05T05:00:38.398Z,5.93
2018-09-05T05:03:06.814Z,6.60
2018-09-05T05:05:35.284Z,7.03
2018-09-05T05:08:03.629Z,6.70
2018-09-05T05:10:32.046Z,5.30
2018-09-05T05:13:00.421Z,5.90
2018-09-05T05:15:28.853Z,5.37
2018-09-05T05:17:57.209Z,5.50
2018-09-05T05:20:25.662Z,12.73
2018-09-05T05:22:54.060Z,8.47
2018-09-05T05:25:23.000Z,6.87
2018-09-05T05:27:51.409Z,5.57
2018-09-05T05:30:19.812Z,5.90
2018-09-05T05:32:48.412Z,7.23
2018-09-05T05:35:16.708Z,5.67
2018-09-05T05:37:45.130Z,5.67
2018-09-05T05:40:13.593Z,7.40
2018-09-05T05:42:41.985Z,5.37
2018-09-05T05:45:10.392Z,7.67
2018-09-05T05:47:38.861Z,8.60
2018-09-05T05:50:07.254Z,7.33
2018-09-05T05:52:35.672Z,10.40
2018-09-05T05:55:04.105Z,6.37
2018-09-05T05:57:32.558Z,6.90
2018-09-05T06:00:00.949Z,6.97
2018-09-05T06:02:29.381Z,7.23
2018-09-05T06:04:57.798Z,7.13
2018-09-05T06:07:26.245Z,6.50
2018-09-05T06:09:54.634Z,7.00
2018-09-05T06:12:23.058Z,6.90
2018-09-05T06:14:51.437Z,6.87
2018-09-05T06:17:19.916Z,6.53
2018-09-05T06:19:48.290Z,7.87
2018-09-05T06:22:16.782Z,9.50
2018-09-05T06:24:45.677Z,7.03
2018-09-05T06:27:14.997Z,8.10
2018-09-05T06:29:43.368Z,10.03
2018-09-05T06:32:11.756Z,10.17
2018-09-05T06:34:40.741Z,9.53
2018-09-05T06:37:09.109Z,7.57
2018-09-05T06:39:37.530Z,9.20
2018-09-05T06:42:06.021Z,8.67
2018-09-05T06:44:34.565Z,11.13
2018-09-05T06:47:02.949Z,10.17
2018-09-05T06:49:31.402Z,10.87
2018-09-05T06:51:59.802Z,8.80
2018-09-05T06:54:28.203Z,9.33
2018-09-05T06:56:56.581Z,9.10
2018-09-05T06:59:25.101Z,9.80
2018-09-05T07:01:53.473Z,8.27
2018-09-05T07:04:21.885Z,9.93
2018-09-05T07:06:50.290Z,9.70
2018-09-05T07:09:18.713Z,7.13
2018-09-05T07:11:47.137Z,7.43
2018-09-05T07:14:15.611Z,7.40
2018-09-05T07:16:43.955Z,7.40
2018-09-05T07:19:13.053Z,7.27
2018-09-05T07:21:41.490Z,6.93
2018-09-05T07:24:09.874Z,10.20
2018-09-05T07:26:38.589Z,8.10
2018-09-05T07:29:07.196Z,10.13
2018-09-05T07:31:35.793Z,9.53
2018-09-05T07:34:04.180Z,7.60
2018-09-05T07:36:32.618Z,11.43
2018-09-05T07:39:01.249Z,7.90
2018-09-05T07:41:29.733Z,9.00
2018-09-05T07:43:58.150Z,9.57
2018-09-05T07:46:26.573Z,10.30
2018-09-05T07:48:55.025Z,14.30
2018-09-05T07:51:23.420Z,12.60
2018-09-05T07:53:51.814Z,16.50
2018-09-05T07:56:20.285Z,11.17
2018-09-05T07:58:48.701Z,8.30
2018-09-05T08:01:17.113Z,6.70
2018-09-05T08:03:45.507Z,7.90
2018-09-05T08:06:13.906Z,7.30
2018-09-05T08:08:42.351Z,6.80
2018-09-05T08:11:10.776Z,7.20
2018-09-05T08:13:39.169Z,9.23
2018-09-05T08:16:07.877Z,7.67
2018-09-05T08:18:36.258Z,8.03
2018-09-05T08:21:04.655Z,9.08
2018-09-05T08:23:33.090Z,7.70
2018-09-05T08:26:01.484Z,9.23
2018-09-05T08:28:29.922Z,8.65
2018-09-05T08:30:58.280Z,6.90
2018-09-05T08:33:26.688Z,7.47
2018-09-05T08:35:55.378Z,7.45
2018-09-05T08:38:23.611Z,6.87
2018-09-05T08:40:52.018Z,7.30
2018-09-05T08:43:20.491Z,6.47
2018-09-05T08:45:49.260Z,9.00
2018-09-05T08:48:17.383Z,9.75
2018-09-05T08:50:45.692Z,8.50
2018-09-05T08:53:14.114Z,8.45
2018-09-05T08:55:42.508Z,7.95
2018-09-05T08:58:10.930Z,7.72
2018-09-05T09:00:39.305Z,7.78
2018-09-05T09:03:07.766Z,9.65
2018-09-05T09:05:36.157Z,8.43
2018-09-05T09:08:04.615Z,11.15
2018-09-05T09:10:33.001Z,7.92
2018-09-05T09:13:01.352Z,8.75
2018-09-05T09:15:29.777Z,8.65
2018-09-05T09:17:58.166Z,9.03
2018-09-05T09:20:26.593Z,9.38
2018-09-05T09:22:54.989Z,10.23
2018-09-05T09:25:23.392Z,9.35
2018-09-05T09:27:51.809Z,9.05
2018-09-05T09:30:20.221Z,10.00
2018-09-05T09:32:48.597Z,12.93
2018-09-05T09:35:17.049Z,10.00
2018-09-05T09:37:45.401Z,10.00
2018-09-05T09:40:14.688Z,11.38
2018-09-05T09:42:43.093Z,13.13
2018-09-05T09:45:11.509Z,10.40
2018-09-05T09:47:39.885Z,10.93
2018-09-05T09:50:08.925Z,10.50
2018-09-05T09:52:38.674Z,9.93
2018-09-05T09:55:13.566Z,10.55
2018-09-05T09:57:41.960Z,11.75
2018-09-05T10:00:12.092Z,11.50
2018-09-05T10:03:47.601Z,12.85
2018-09-05T10:06:25.966Z,10.98
2018-09-05T10:08:59.837Z,10.88
2018-09-05T10:11:33.461Z,11.65
2018-09-05T10:14:07.240Z,12.23
2018-09-05T10:16:44.712Z,10.53
2018-09-05T10:19:13.521Z,10.40
2018-09-05T10:21:41.949Z,11.48
2018-09-05T10:24:10.321Z,10.58
2018-09-05T10:26:38.738Z,12.05
2018-09-05T10:29:07.108Z,11.08
2018-09-05T10:31:35.570Z,11.35
2018-09-05T10:34:03.990Z,11.38
2018-09-05T10:36:32.460Z,11.20
2018-09-05T10:39:00.870Z,11.12
2018-09-05T10:41:29.236Z,12.07
2018-09-05T10:43:57.671Z,11.18
2018-09-05T10:46:26.057Z,10.63
2018-09-05T10:48:54.503Z,11.75
2018-09-05T10:51:28.930Z,11.50
2018-09-05T10:53:57.330Z,12.20
2018-09-05T10:56:25.697Z,11.18
2018-09-05T10:58:54.120Z,12.53
2018-09-05T11:01:22.549Z,12.85
2018-09-05T11:03:50.977Z,12.05
2018-09-05T11:06:19.369Z,12.33
2018-09-05T11:08:47.815Z,11.78
2018-09-05T11:11:16.212Z,12.05
2018-09-05T11:13:44.644Z,12.05
2018-09-05T11:16:13.057Z,12.55
2018-09-05T11:18:41.426Z,12.45
2018-09-05T11:21:09.876Z,13.20
2018-09-05T11:23:38.257Z,12.30
2018-09-05T11:26:06.680Z,12.95
2018-09-05T11:28:35.109Z,12.95
2018-09-05T11:31:03.513Z,13.45
2018-09-05T11:33:31.908Z,12.65
2018-09-05T11:36:00.324Z,12.90
2018-09-05T11:38:28.710Z,14.07
2018-09-05T11:40:57.165Z,14.53
2018-09-05T11:43:25.624Z,13.05
2018-09-05T11:45:54.029Z,14.25
2018-09-05T11:48:22.428Z,16.73
2018-09-05T11:50:50.964Z,15.58
2018-09-05T11:53:19.352Z,15.28
2018-09-05T11:55:47.728Z,15.03
2018-09-05T11:58:16.136Z,16.32
2018-09-05T12:00:44.510Z,15.43
2018-09-05T12:03:12.921Z,15.13
2018-09-05T12:05:41.293Z,16.95
2018-09-05T12:08:09.721Z,14.78
2018-09-05T12:10:38.116Z,14.73
2018-09-05T12:13:06.553Z,15.63
2018-09-05T12:15:34.940Z,16.45
2018-09-05T12:18:03.344Z,15.35
2018-09-05T12:20:31.755Z,17.15
2018-09-05T12:23:00.179Z,15.20
2018-09-05T12:25:28.598Z,16.60
2018-09-05T12:27:57.007Z,16.23
2018-09-05T12:30:31.677Z,16.20
2018-09-05T12:33:00.133Z,17.92
2018-09-05T12:35:28.505Z,17.00
2018-09-05T12:37:57.241Z,16.80
2018-09-05T12:40:53.805Z,14.90
2018-09-05T12:43:22.666Z,15.10
2018-09-05T12:45:51.048Z,14.13
2018-09-05T12:48:19.489Z,19.75
2018-09-05T12:50:47.880Z,15.15
2018-09-05T12:53:16.296Z,15.35
2018-09-05T12:55:44.699Z,16.10
2018-09-05T12:58:13.221Z,14.73
2018-09-05T13:00:41.685Z,15.78
2018-09-05T13:03:10.073Z,17.32
2018-09-05T13:05:38.527Z,14.68
2018-09-05T13:08:06.874Z,17.00
2018-09-05T13:10:35.293Z,15.35
2018-09-05T13:13:03.686Z,16.62
2018-09-05T13:15:32.137Z,15.10
2018-09-05T13:18:00.509Z,14.95
2018-09-05T13:20:28.933Z,15.65
2018-09-05T13:22:57.317Z,14.00
2018-09-05T13:25:25.759Z,15.95
2018-09-05T13:27:54.122Z,15.28
2018-09-05T13:30:22.532Z,16.37
2018-09-05T13:32:50.925Z,15.08
2018-09-05T13:35:19.401Z,15.23
2018-09-05T13:37:47.765Z,15.65
2018-09-05T13:40:16.173Z,14.60
2018-09-05T13:42:44.549Z,16.70
2018-09-05T13:45:13.232Z,16.87
2018-09-05T13:47:41.630Z,16.48
2018-09-05T13:50:10.043Z,16.93
2018-09-05T13:52:38.445Z,15.53
2018-09-05T13:55:06.889Z,15.95
2018-09-05T13:57:35.317Z,14.95
2018-09-05T14:00:03.761Z,16.40
2018-09-05T14:02:32.156Z,15.60
2018-09-05T14:05:00.541Z,15.32
2018-09-05T14:07:28.962Z,16.65
2018-09-05T14:09:57.353Z,16.52
2018-09-05T14:12:25.761Z,16.17
2018-09-05T14:14:54.154Z,17.27
2018-09-05T14:17:22.566Z,16.85
2018-09-05T14:19:50.952Z,17.62
2018-09-05T14:22:19.362Z,15.95
2018-09-05T14:24:54.041Z,16.37
2018-09-05T14:27:22.490Z,16.90
2018-09-05T14:29:50.876Z,16.05
2018-09-05T14:32:19.260Z,16.90
2018-09-05T14:34:47.675Z,16.52
2018-09-05T14:37:16.060Z,17.12
2018-09-05T14:42:18.197Z,18.17
2018-09-05T14:44:46.605Z,17.82
2018-09-05T14:47:14.985Z,18.07
2018-09-05T14:49:43.426Z,17.75
2018-09-05T14:52:11.813Z,17.37
2018-09-05T14:54:40.241Z,18.67
2018-09-05T14:57:08.657Z,16.57
2018-09-05T14:59:37.098Z,17.77
2018-09-05T15:02:05.493Z,17.65
2018-09-05T15:04:33.916Z,18.05
2018-09-05T15:07:02.311Z,18.90
2018-09-05T15:09:30.741Z,18.02
2018-09-05T15:11:59.222Z,18.67
2018-09-05T15:14:27.585Z,18.25
2018-09-05T15:16:56.009Z,19.17
2018-09-05T15:19:24.389Z,19.12
2018-09-05T15:21:52.796Z,18.07
2018-09-05T15:24:21.173Z,19.23
2018-09-05T15:26:49.588Z,20.80
2018-09-05T15:29:17.969Z,20.30
2018-09-05T15:31:46.397Z,22.00
2018-09-05T15:34:14.785Z,20.05
2018-09-05T15:36:43.220Z,19.02
2018-09-05T15:39:12.047Z,18.30
2018-09-05T15:41:40.788Z,18.17
2018-09-05T15:44:09.555Z,19.25
2018-09-05T15:46:37.975Z,19.90
2018-09-05T15:49:07.601Z,20.05
2018-09-05T15:51:36.016Z,22.55
2018-09-05T15:54:04.556Z,23.95
2018-09-05T15:56:33.164Z,26.62
2018-09-05T15:59:01.532Z,21.17
2018-09-05T16:01:29.949Z,23.62
2018-09-05T16:03:58.493Z,25.92
2018-09-05T16:06:26.925Z,22.98
2018-09-05T16:08:55.313Z,22.13
2018-09-05T16:11:23.747Z,22.35
2018-09-05T16:13:52.384Z,21.30
2018-09-05T16:16:20.867Z,21.97
2018-09-05T16:18:49.922Z,21.23
2018-09-05T16:21:18.289Z,26.25
2018-09-05T16:23:46.697Z,30.32
2018-09-05T16:26:15.129Z,26.30
2018-09-05T16:28:43.543Z,24.50
2018-09-05T16:31:11.926Z,26.80
2018-09-05T16:33:40.346Z,21.90
2018-09-05T16:36:08.784Z,24.77
2018-09-05T16:38:37.206Z,25.32
2018-09-05T16:41:05.621Z,23.87
2018-09-05T16:43:34.061Z,24.00
2018-09-05T16:46:02.517Z,26.07
2018-09-05T16:48:30.997Z,28.10
2018-09-05T16:50:59.377Z,26.65
2018-09-05T16:53:27.885Z,24.65
2018-09-05T16:55:56.291Z,23.85
2018-09-05T16:58:24.712Z,24.05
2018-09-05T17:00:53.193Z,24.35
2018-09-05T17:03:21.597Z,25.12
2018-09-05T17:05:49.973Z,27.85
2018-09-05T17:08:18.697Z,24.47
2018-09-05T17:10:47.126Z,27.27
2018-09-05T17:13:15.525Z,27.02
2018-09-05T17:15:43.969Z,24.98
2018-09-05T17:18:12.369Z,24.25
2018-09-05T17:20:40.832Z,26.48
2018-09-05T17:23:09.277Z,27.42
2018-09-05T17:25:37.689Z,24.70
2018-09-05T17:28:06.096Z,24.60
2018-09-05T17:30:34.525Z,25.82
2018-09-05T17:33:02.888Z,24.82
2018-09-05T17:35:31.365Z,26.20
2018-09-05T17:37:59.710Z,24.72
2018-09-05T17:40:28.125Z,28.35
2018-09-05T17:42:56.572Z,27.60
2018-09-05T17:45:24.982Z,26.00
2018-09-05T17:47:53.365Z,28.02
2018-09-05T17:50:21.838Z,26.27
2018-09-05T17:52:50.228Z,26.97
2018-09-05T17:55:18.690Z,26.93
2018-09-05T17:57:47.085Z,28.30
2018-09-05T18:00:15.578Z,27.67
2018-09-05T18:02:43.957Z,25.57
2018-09-05T18:05:12.361Z,29.63
2018-09-05T18:07:40.760Z,27.15
2018-09-05T18:10:09.333Z,30.48
2018-09-05T18:12:37.745Z,30.77
2018-09-05T18:15:06.249Z,30.37
2018-09-05T18:17:34.671Z,32.58
2018-09-05T18:20:03.134Z,32.08
2018-09-05T18:22:31.675Z,31.65
2018-09-05T18:25:00.053Z,32.65
2018-09-05T18:27:28.515Z,29.18
2018-09-05T18:29:56.961Z,29.92
2018-09-05T18:32:25.739Z,29.32
2018-09-05T18:34:54.360Z,30.60
2018-09-05T18:37:23.458Z,29.15
2018-09-05T18:39:51.861Z,27.82
2018-09-05T18:42:20.631Z,28.15
2018-09-05T18:44:49.074Z,28.50
2018-09-05T18:47:17.895Z,29.80
2018-09-05T18:49:46.397Z,30.45
2018-09-05T18:52:14.893Z,32.00
2018-09-05T18:54:43.314Z,33.15
2018-09-05T18:57:11.772Z,30.82
2018-09-05T18:59:40.494Z,32.33
2018-09-05T19:02:08.937Z,34.92
2018-09-05T19:04:37.564Z,32.93
2018-09-05T19:07:06.402Z,32.45
2018-09-05T19:09:35.561Z,32.42
2018-09-05T19:12:03.983Z,35.33
2018-09-05T19:14:32.409Z,31.25
2018-09-05T19:17:00.827Z,33.67
2018-09-05T19:19:29.391Z,32.50
2018-09-05T19:21:57.786Z,35.15
2018-09-05T19:24:26.458Z,33.02
2018-09-05T19:26:54.872Z,33.98
2018-09-05T19:29:23.277Z,33.28
2018-09-05T19:31:51.660Z,35.60
2018-09-05T19:34:20.113Z,31.87
2018-09-05T19:36:48.510Z,33.75
2018-09-05T19:41:50.933Z,36.20
2018-09-05T19:44:19.409Z,36.77
2018-09-05T19:46:47.819Z,36.50
2018-09-05T19:49:16.331Z,39.95
2018-09-05T19:51:44.678Z,36.35
2018-09-05T19:54:13.073Z,38.35
2018-09-05T19:56:41.481Z,38.83
2018-09-05T19:59:09.942Z,37.65
2018-09-05T20:01:38.364Z,41.15
2018-09-05T20:04:06.813Z,41.25
2018-09-05T20:06:35.224Z,39.40
2018-09-05T20:09:04.593Z,40.00
2018-09-05T20:11:33.013Z,41.28
2018-09-05T20:14:01.386Z,40.88
2018-09-05T20:16:29.853Z,43.92
2018-09-05T20:18:58.288Z,39.95
2018-09-05T20:21:26.712Z,39.18
2018-09-05T20:23:55.110Z,42.23
2018-09-05T20:26:23.526Z,41.23
2018-09-05T20:28:51.989Z,39.58
2018-09-05T20:31:20.394Z,43.98
2018-09-05T20:33:48.813Z,41.60
2018-09-05T20:36:17.217Z,42.33
2018-09-05T20:38:45.608Z,44.60
2018-09-05T20:41:14.088Z,45.88
2018-09-05T20:43:42.551Z,39.90
2018-09-05T20:48:44.788Z,41.75
2018-09-05T20:51:13.172Z,45.48
2018-09-05T20:53:41.808Z,41.77
2018-09-05T20:56:10.236Z,45.25
2018-09-05T20:58:38.759Z,45.00
2018-09-05T21:01:07.145Z,47.70
2018-09-05T21:03:35.589Z,48.45
2018-09-05T21:06:04.098Z,43.65
2018-09-05T21:08:32.547Z,43.83
2018-09-05T21:11:00.905Z,46.97
2018-09-05T21:13:29.385Z,46.20
2018-09-05T21:16:04.560Z,44.15
2018-09-05T21:18:33.439Z,46.40
2018-09-05T21:21:01.800Z,48.63
2018-09-05T21:23:31.575Z,47.93
2018-09-05T21:26:00.201Z,46.03
2018-09-05T21:28:28.597Z,43.08
2018-09-05T21:30:57.037Z,46.67
2018-09-05T21:33:25.956Z,46.53
2018-09-05T21:35:54.500Z,53.30
2018-09-05T21:38:22.915Z,55.83
2018-09-05T21:40:51.338Z,48.40
2018-09-05T21:43:19.713Z,46.43
2018-09-05T21:45:48.161Z,48.87
2018-09-05T21:48:16.573Z,50.17
2018-09-05T21:50:46.813Z,50.87
2018-09-05T21:53:15.177Z,48.33
2018-09-05T21:55:43.632Z,46.97
2018-09-05T21:58:12.048Z,48.27
2018-09-05T22:00:40.501Z,45.37
2018-09-05T22:03:09.018Z,48.60
2018-09-05T22:05:37.402Z,48.47
2018-09-05T22:08:06.064Z,50.27
2018-09-05T22:10:34.445Z,49.60
2018-09-05T22:13:02.904Z,53.13
2018-09-05T22:15:41.221Z,47.23
2018-09-05T22:18:09.622Z,51.03
2018-09-05T22:20:38.365Z,52.37
2018-09-05T22:23:06.840Z,53.80
2018-09-05T22:25:35.276Z,47.50
2018-09-05T22:28:03.737Z,46.50
2018-09-05T22:30:33.305Z,50.60
2018-09-05T22:33:02.436Z,48.57
2018-09-05T22:35:30.808Z,50.83
2018-09-05T22:37:59.499Z,49.13
2018-09-05T22:40:30.437Z,47.03
2018-09-05T22:43:10.736Z,50.33
2018-09-05T22:45:50.360Z,49.87
2018-09-05T22:48:35.368Z,48.10
2018-09-05T22:51:22.408Z,49.47
2018-09-05T22:54:11.522Z,47.07
2018-09-05T22:57:02.355Z,48.23
2018-09-05T23:00:20.122Z,47.40
2018-09-05T23:04:01.550Z,47.93
2018-09-05T23:08:45.466Z,45.77
2018-09-05T23:11:54.394Z,49.90
2018-09-05T23:14:38.838Z,46.40
2018-09-05T23:17:19.036Z,43.37
2018-09-05T23:19:58.358Z,41.97
2018-09-05T23:22:36.854Z,44.30
2018-09-05T23:25:05.265Z,42.97
2018-09-05T23:27:33.706Z,44.13
2018-09-05T23:30:02.116Z,44.67
2018-09-05T23:32:30.546Z,44.27
2018-09-05T23:34:58.929Z,43.47
2018-09-05T23:37:27.359Z,45.30
2018-09-05T23:39:55.782Z,43.60
2018-09-05T23:42:24.198Z,44.40
2018-09-05T23:44:52.614Z,42.20
2018-09-05T23:47:21.066Z,40.87
2018-09-05T23:49:49.510Z,39.97
2018-09-05T23:52:17.926Z,39.23
2018-09-05T23:54:46.365Z,39.03
2018-09-05T23:57:14.770Z,39.07
2018-09-05T23:59:43.215Z,36.37
